Aurora, WV

6:54 PM EDT on July 23, 2016 (GMT -0400)
1 1/2 Mi. South of Terra Alta, Snowy Creek WV | | Change Station

Elev 2842 ft 39.40 °N, 79.58 °W | Updated 38 seconds ago

Clear
Clear
81.7 °F
Feels Like 85 °F
N
0.0
Wind Variable Wind from West

Today
High -- | Low -- °F
--% Chance of Precip.
Yesterday
High -- | Low -- °F
Precip. -- in
Pressure 30.09 in
Visibility 10.0 miles
Clouds Clear
Heat Index 85 °F
Dew Point 68 °F
Humidity 64%
Rainfall 0.00 in
Snow Depth Not available.
6:10 AM 8:38 PM
Waning Gibbous, 82% visible
METAR K2G4 232230Z AUTO 00000KT 10SM CLR 25/20 A3009 RMK AO1
Pressure 30.09 in
Visibility 10.0 miles
Clouds Clear
Heat Index 85 °F
Dew Point 68 °F
Humidity 64%
Rainfall 0.00 in
Snow Depth Not available.
6:10 AM 8:38 PM
Waning Gibbous, 82% visible
METAR K2G4 232230Z AUTO 00000KT 10SM CLR 25/20 A3009 RMK AO1

10-Day Weather Forecast

Almanac

Astronomy

Jul. 23, 2016 Rise Set
Actual Time
Civil Twilight
Nautical Twilight
Astronomical Twilight
Moon
Length of Visible Light
Length of Day
Tomorrow will be .
, % of the Moon is Illuminated

Today's Extremes

State Highs State Lows

Community

WunderPhotos

Upload Photos

1,926,950 photos uploaded!

WunderBlog® & News

Nearby

Air Quality

  Air Quality AQ Index Pollutant
Not available.

Snow Depth

Station Depth Elevation

Earthquake Activity

City Distance Mag. Time & Date
Minimum magnitude displayed is 2.5.

Coastal Water Temperatures

Place Temperature

Stations

Nearby Weather Stations

Station Location Temp. Windchill Dew Point Humidity Wind Precip. Elev Updated Type
                   

Watches & Warnings

There are currently no watches in effect.